sensor_id;sensor_type;location;lat;lon;timestamp;temperature;humidity
12460;DHT22;6295;49.452;8.466;2023-09-19T06:14:54;16.90;99.90
12460;DHT22;6295;49.452;8.466;2023-09-19T06:18:56;16.90;99.90
12460;DHT22;6295;49.452;8.466;2023-09-19T06:22:58;16.90;99.90
12460;DHT22;6295;49.452;8.466;2023-09-19T06:27:03;16.90;99.90
12460;DHT22;6295;49.452;8.466;2023-09-19T06:31:06;17.00;99.90
12460;DHT22;6295;49.452;8.466;2023-09-19T06:35:10;17.00;99.90
12460;DHT22;6295;49.452;8.466;2023-09-19T06:39:15;17.10;99.90
12460;DHT22;6295;49.452;8.466;2023-09-19T06:43:18;17.10;99.90
12460;DHT22;6295;49.452;8.466;2023-09-19T06:47:21;17.10;99.90
12460;DHT22;6295;49.452;8.466;2023-09-19T06:51:26;17.10;99.90
12460;DHT22;6295;49.452;8.466;2023-09-19T06:55:30;17.10;99.90
12460;DHT22;6295;49.452;8.466;2023-09-19T06:59:32;17.10;99.90
12460;DHT22;6295;49.452;8.466;2023-09-19T07:03:37;17.20;99.90
12460;DHT22;6295;49.452;8.466;2023-09-19T07:07:40;17.30;99.90
12460;DHT22;6295;49.452;8.466;2023-09-19T07:11:44;17.30;99.90
12460;DHT22;6295;49.452;8.466;2023-09-19T07:15:48;17.40;99.90
12460;DHT22;6295;49.452;8.466;2023-09-19T07:19:52;17.40;99.90
12460;DHT22;6295;49.452;8.466;2023-09-19T07:23:54;17.50;99.90
12460;DHT22;6295;49.452;8.466;2023-09-19T07:27:57;17.50;99.90
12460;DHT22;6295;49.452;8.466;2023-09-19T07:32:02;17.60;99.90
12460;DHT22;6295;49.452;8.466;2023-09-19T07:36:11;17.70;99.90
12460;DHT22;6295;49.452;8.466;2023-09-19T07:40:17;17.70;99.90
12460;DHT22;6295;49.452;8.466;2023-09-19T07:44:23;17.80;99.90
12460;DHT22;6295;49.452;8.466;2023-09-19T07:52:30;17.90;99.90
12460;DHT22;6295;49.452;8.466;2023-09-19T07:56:34;17.90;99.90
12460;DHT22;6295;49.452;8.466;2023-09-19T08:00:36;18.00;99.90
12460;DHT22;6295;49.452;8.466;2023-09-19T08:04:39;18.00;99.90
12460;DHT22;6295;49.452;8.466;2023-09-19T08:08:43;18.10;99.90
12460;DHT22;6295;49.452;8.466;2023-09-19T08:12:46;18.20;99.90
12460;DHT22;6295;49.452;8.466;2023-09-19T08:16:49;18.20;99.90
12460;DHT22;6295;49.452;8.466;2023-09-19T08:20:53;18.20;99.90
12460;DHT22;6295;49.452;8.466;2023-09-19T08:24:56;18.20;99.90
12460;DHT22;6295;49.452;8.466;2023-09-19T08:28:58;18.20;99.90
12460;DHT22;6295;49.452;8.466;2023-09-19T08:33:10;18.30;99.90
12460;DHT22;6295;49.452;8.466;2023-09-19T08:37:12;18.30;99.90
12460;DHT22;6295;49.452;8.466;2023-09-19T08:41:17;18.30;99.90
12460;DHT22;6295;49.452;8.466;2023-09-19T08:45:20;18.30;99.90
12460;DHT22;6295;49.452;8.466;2023-09-19T08:49:32;18.40;99.90
12460;DHT22;6295;49.452;8.466;2023-09-19T08:53:41;18.40;99.90
12460;DHT22;6295;49.452;8.466;2023-09-19T08:57:49;18.40;99.90
12460;DHT22;6295;49.452;8.466;2023-09-19T09:01:53;18.50;99.90
12460;DHT22;6295;49.452;8.466;2023-09-19T09:05:58;18.60;99.90
12460;DHT22;6295;49.452;8.466;2023-09-19T09:10:02;18.60;99.90
12460;DHT22;6295;49.452;8.466;2023-09-19T09:14:06;18.60;99.90
12460;DHT22;6295;49.452;8.466;2023-09-19T09:18:09;18.70;99.90
12460;DHT22;6295;49.452;8.466;2023-09-19T09:22:11;18.70;99.90
12460;DHT22;6295;49.452;8.466;2023-09-19T09:26:14;18.80;99.90
12460;DHT22;6295;49.452;8.466;2023-09-19T09:30:34;18.80;99.90
12460;DHT22;6295;49.452;8.466;2023-09-19T09:34:38;18.90;99.90
12460;DHT22;6295;49.452;8.466;2023-09-19T09:38:47;18.90;99.90
12460;DHT22;6295;49.452;8.466;2023-09-19T09:42:50;19.00;99.90
12460;DHT22;6295;49.452;8.466;2023-09-19T09:47:00;18.90;99.90
12460;DHT22;6295;49.452;8.466;2023-09-19T09:51:29;19.50;99.90
12460;DHT22;6295;49.452;8.466;2023-09-19T09:55:58;19.00;99.90
12460;DHT22;6295;49.452;8.466;2023-09-19T10:00:02;19.10;99.90
12460;DHT22;6295;49.452;8.466;2023-09-19T10:04:31;19.20;99.90
12460;DHT22;6295;49.452;8.466;2023-09-19T10:08:58;19.30;99.90
12460;DHT22;6295;49.452;8.466;2023-09-19T10:13:07;19.50;99.90
12460;DHT22;6295;49.452;8.466;2023-09-19T10:17:16;19.60;99.90
12460;DHT22;6295;49.452;8.466;2023-09-19T10:21:27;19.80;99.90
12460;DHT22;6295;49.452;8.466;2023-09-19T10:29:34;19.90;99.90
12460;DHT22;6295;49.452;8.466;2023-09-19T10:33:38;20.00;99.90
12460;DHT22;6295;49.452;8.466;2023-09-19T10:37:45;20.00;99.90
12460;DHT22;6295;49.452;8.466;2023-09-19T10:41:53;19.90;99.90
12460;DHT22;6295;49.452;8.466;2023-09-19T10:46:02;20.00;99.90
12460;DHT22;6295;49.452;8.466;2023-09-19T10:50:07;19.90;99.90
12460;DHT22;6295;49.452;8.466;2023-09-19T10:54:17;19.90;99.90
12460;DHT22;6295;49.452;8.466;2023-09-19T10:58:26;19.90;99.90
12460;DHT22;6295;49.452;8.466;2023-09-19T11:06:32;19.90;99.90
12460;DHT22;6295;49.452;8.466;2023-09-19T11:10:48;20.00;99.90
12460;DHT22;6295;49.452;8.466;2023-09-19T11:14:51;20.00;99.90
12460;DHT22;6295;49.452;8.466;2023-09-19T11:18:57;20.00;99.90
12460;DHT22;6295;49.452;8.466;2023-09-19T11:23:21;20.10;99.90
12460;DHT22;6295;49.452;8.466;2023-09-19T11:27:28;20.20;99.90
12460;DHT22;6295;49.452;8.466;2023-09-19T11:31:45;20.30;99.90
12460;DHT22;6295;49.452;8.466;2023-09-19T11:36:02;20.40;99.90
12460;DHT22;6295;49.452;8.466;2023-09-19T11:40:08;20.40;99.90
12460;DHT22;6295;49.452;8.466;2023-09-19T11:44:35;20.50;99.90
12460;DHT22;6295;49.452;8.466;2023-09-19T11:48:39;20.50;99.90
12460;DHT22;6295;49.452;8.466;2023-09-19T11:56:45;20.70;99.90
12460;DHT22;6295;49.452;8.466;2023-09-19T12:00:55;20.70;99.90
12460;DHT22;6295;49.452;8.466;2023-09-19T12:05:01;20.80;99.90
12460;DHT22;6295;49.452;8.466;2023-09-19T12:09:04;20.90;99.90
12460;DHT22;6295;49.452;8.466;2023-09-19T12:13:16;20.80;99.90
12460;DHT22;6295;49.452;8.466;2023-09-19T12:17:20;20.80;99.90
12460;DHT22;6295;49.452;8.466;2023-09-19T12:21:26;20.90;99.90
12460;DHT22;6295;49.452;8.466;2023-09-19T12:25:41;21.00;99.90
12460;DHT22;6295;49.452;8.466;2023-09-19T12:29:49;21.20;99.90
12460;DHT22;6295;49.452;8.466;2023-09-19T12:33:57;21.30;99.90
12460;DHT22;6295;49.452;8.466;2023-09-19T12:37:59;21.40;99.90
12460;DHT22;6295;49.452;8.466;2023-09-19T12:42:02;21.50;99.90
12460;DHT22;6295;49.452;8.466;2023-09-19T12:46:09;21.60;99.90
12460;DHT22;6295;49.452;8.466;2023-09-19T12:50:14;21.60;99.90
12460;DHT22;6295;49.452;8.466;2023-09-19T12:54:19;21.70;99.90
12460;DHT22;6295;49.452;8.466;2023-09-19T12:58:23;21.70;99.90
12460;DHT22;6295;49.452;8.466;2023-09-19T13:02:26;21.80;99.90
12460;DHT22;6295;49.452;8.466;2023-09-19T13:06:37;21.90;99.90
12460;DHT22;6295;49.452;8.466;2023-09-19T13:11:06;21.90;99.90
12460;DHT22;6295;49.452;8.466;2023-09-19T13:15:11;22.10;99.90
12460;DHT22;6295;49.452;8.466;2023-09-19T13:19:38;22.10;99.90
12460;DHT22;6295;49.452;8.466;2023-09-19T13:23:43;22.20;99.90
12460;DHT22;6295;49.452;8.466;2023-09-19T13:27:47;22.30;99.90
12460;DHT22;6295;49.452;8.466;2023-09-19T13:31:52;22.40;99.90
12460;DHT22;6295;49.452;8.466;2023-09-19T13:35:55;22.50;99.90
12460;DHT22;6295;49.452;8.466;2023-09-19T13:39:59;22.60;99.90
12460;DHT22;6295;49.452;8.466;2023-09-19T13:44:01;22.50;99.90
12460;DHT22;6295;49.452;8.466;2023-09-19T13:48:04;22.60;99.90
12460;DHT22;6295;49.452;8.466;2023-09-19T13:52:06;22.70;99.90
12460;DHT22;6295;49.452;8.466;2023-09-19T13:56:09;22.70;99.90
12460;DHT22;6295;49.452;8.466;2023-09-19T14:00:12;22.90;99.90
12460;DHT22;6295;49.452;8.466;2023-09-19T14:04:17;22.90;99.90
12460;DHT22;6295;49.452;8.466;2023-09-19T14:08:19;23.00;99.90
12460;DHT22;6295;49.452;8.466;2023-09-19T14:12:22;23.00;99.90
12460;DHT22;6295;49.452;8.466;2023-09-19T14:16:24;23.00;99.90
12460;DHT22;6295;49.452;8.466;2023-09-19T14:20:30;23.20;99.90
12460;DHT22;6295;49.452;8.466;2023-09-19T14:24:33;23.00;99.90
12460;DHT22;6295;49.452;8.466;2023-09-19T14:28:36;22.90;99.90
12460;DHT22;6295;49.452;8.466;2023-09-19T14:32:39;22.90;99.90
12460;DHT22;6295;49.452;8.466;2023-09-19T14:36:41;22.80;99.90
12460;DHT22;6295;49.452;8.466;2023-09-19T14:40:43;22.80;99.90
12460;DHT22;6295;49.452;8.466;2023-09-19T14:44:48;22.80;99.90
12460;DHT22;6295;49.452;8.466;2023-09-19T14:48:51;22.90;99.90
12460;DHT22;6295;49.452;8.466;2023-09-19T14:52:53;22.80;99.90
12460;DHT22;6295;49.452;8.466;2023-09-19T14:56:55;22.70;99.90
12460;DHT22;6295;49.452;8.466;2023-09-19T15:01:09;22.50;99.90
12460;DHT22;6295;49.452;8.466;2023-09-19T15:05:15;22.50;99.90
12460;DHT22;6295;49.452;8.466;2023-09-19T15:09:18;22.50;99.90
12460;DHT22;6295;49.452;8.466;2023-09-19T15:13:21;22.50;99.90
12460;DHT22;6295;49.452;8.466;2023-09-19T15:17:26;22.40;99.90
12460;DHT22;6295;49.452;8.466;2023-09-19T15:21:28;22.50;99.90
12460;DHT22;6295;49.452;8.466;2023-09-19T15:25:30;22.50;99.90
12460;DHT22;6295;49.452;8.466;2023-09-19T15:29:32;22.60;99.90
12460;DHT22;6295;49.452;8.466;2023-09-19T15:33:36;22.60;99.90
12460;DHT22;6295;49.452;8.466;2023-09-19T15:37:38;22.70;99.90
12460;DHT22;6295;49.452;8.466;2023-09-19T15:41:44;22.60;99.90
12460;DHT22;6295;49.452;8.466;2023-09-19T15:45:48;22.60;99.90
12460;DHT22;6295;49.452;8.466;2023-09-19T15:49:52;22.60;99.90
12460;DHT22;6295;49.452;8.466;2023-09-19T15:53:56;22.80;99.90
12460;DHT22;6295;49.452;8.466;2023-09-19T15:58:00;22.90;99.90
12460;DHT22;6295;49.452;8.466;2023-09-19T16:02:06;22.90;99.90
12460;DHT22;6295;49.452;8.466;2023-09-19T16:06:11;23.00;99.90
12460;DHT22;6295;49.452;8.466;2023-09-19T16:10:13;23.00;99.90
12460;DHT22;6295;49.452;8.466;2023-09-19T16:18:18;23.00;99.90
12460;DHT22;6295;49.452;8.466;2023-09-19T16:22:22;23.00;99.90
12460;DHT22;6295;49.452;8.466;2023-09-19T16:26:25;23.00;99.90
12460;DHT22;6295;49.452;8.466;2023-09-19T16:30:27;23.00;99.90
12460;DHT22;6295;49.452;8.466;2023-09-19T16:34:29;23.00;99.90
12460;DHT22;6295;49.452;8.466;2023-09-19T16:38:33;22.90;99.90
12460;DHT22;6295;49.452;8.466;2023-09-19T16:42:36;22.90;99.90
12460;DHT22;6295;49.452;8.466;2023-09-19T16:46:39;22.80;99.90
12460;DHT22;6295;49.452;8.466;2023-09-19T16:50:42;22.70;99.90
12460;DHT22;6295;49.452;8.466;2023-09-19T16:54:46;22.70;99.90
12460;DHT22;6295;49.452;8.466;2023-09-19T16:58:49;22.50;99.90
12460;DHT22;6295;49.452;8.466;2023-09-19T17:02:52;22.40;99.90
12460;DHT22;6295;49.452;8.466;2023-09-19T17:11:03;22.10;99.90
12460;DHT22;6295;49.452;8.466;2023-09-19T17:15:07;22.00;99.90
12460;DHT22;6295;49.452;8.466;2023-09-19T17:19:10;21.80;99.90
12460;DHT22;6295;49.452;8.466;2023-09-19T17:23:13;21.70;99.90
12460;DHT22;6295;49.452;8.466;2023-09-19T17:27:16;21.60;99.90
12460;DHT22;6295;49.452;8.466;2023-09-19T17:31:20;21.50;99.90
12460;DHT22;6295;49.452;8.466;2023-09-19T17:35:22;21.40;99.90
12460;DHT22;6295;49.452;8.466;2023-09-19T17:39:25;21.20;99.90
12460;DHT22;6295;49.452;8.466;2023-09-19T17:43:31;21.20;99.90
12460;DHT22;6295;49.452;8.466;2023-09-19T17:47:34;21.10;99.90
12460;DHT22;6295;49.452;8.466;2023-09-19T17:51:40;21.00;99.90
12460;DHT22;6295;49.452;8.466;2023-09-19T17:55:44;20.90;99.90
